Pendleton, OR

08:36 PDT le 27 Mars 2015 (GMT -0700)
Sun Ridge Estates | | Change Station
CLOSE
Current Station
Stations météorologiques personnelles
Location: Pendleton, OR
Altitude: 1210 ft
Stations météo à proximité

Alt. 1210 ft 45.65 °N, 118.79 °W | Updated 2 minutes ago

Ciel dégagé
Ciel dégagé
48.9 ° F
Paraît 49 ° F
N
0.0
Vent Variable Vent de Ouest
Gusts 1.0 mph

Aujourd'hui
Haut(e) -- | Bas -- ° F
--% Risque de précip.
Hier
Haut(e) -- | Bas -- ° F
Precip. -- pouce
6:45 AM 7:16 PM
Premier quartier, 53% visible
Pression 30.06 pouce
Visibilité 10.0 Miles terrestres
Nuages Ciel dégagé
Refroidissement éolien 49 ° F
Point de rosée 46 ° F
Humidité 90%
Précipitations 0.00 pouce
Profondeur de la couche neigeuse Non disponible.
UV 1 sur 12
Pollen 9.40 sur 12
Qualité de l'air Non disponible.
Flu Activity Non disponible.
METAR KPDT 271453Z 33003KT 10SM CLR 09/07 A3007 RMK AO2 SLP177 T00940072 53001

More Conditions Fewer Conditions

Pression 30.06 pouce
Visibilité 10.0 Miles terrestres
Nuages Ciel dégagé
Refroidissement éolien 49 ° F
Point de rosée 46 ° F
Humidité 90%
Précipitations 0.00 pouce
Profondeur de la couche neigeuse Non disponible.
UV 1 sur 12
Pollen 9.40 sur 12
Qualité de l'air Non disponible.
Flu Activity Non disponible.
METAR KPDT 271453Z 33003KT 10SM CLR 09/07 A3007 RMK AO2 SLP177 T00940072 53001

More Conditions Fewer Conditions

10-Day Weather Forecast

Almanac

Astronomie

Mar. 27, 2015 Lever Coucher
Temps réel
Crépuscule civil
Crépuscule nautique
Crépuscule astronomique
Lune
Durée de lumière visible
Longueur du jour
Tomorrow will be .
, % of the Moon is Illuminated

Extrêmes aujourd'hui

State Highs State Lows

Community

WunderPhotos

Upload Photos

1,808,755 Photos téléchargées !

WunderBlogs® & News

Nearby

Qualité de l'air

  Qualité de l'air Indice de la qualité de l'air Polluant
Not available.

Épaisseur de neige

Station Depth Altitude

Activité sismique

Ville Distance Mag. Time & Date
Minimum magnitude displayed is 2.5.

Températures des eaux côtières

Lieu Température

Stations

Stations météo à proximité

Emplacement de la station Température Refroidissement éolien Point de rosée Humidité Vent Precip. Alt. Mise à jour Type